Terminal Aerodrome Forecast
Issued by NWS

Home | Current Version | Previous Version | Text Only | Print | Product List | Glossary On
Versions: 1 2 3 4 5 6 7 8 9 10 11 12 13 14 15 16 17 18 19
000
FTUS43 KMQT 061127
TAFCMX
TAF
KCMX 061127Z 0612/0712 22008KT P6SM SCT140 WS020/24045KT
     FM061500 24012G22KT P6SM BKN090
     FM062300 26012G18KT P6SM SCT110
     FM070100 26010KT P6SM BKN100
     FM070600 25006KT P6SM OVC045
     FM070800 25006KT 5SM -SN OVC030
     FM071000 25007KT 3SM -SN OVC018
     FM071100 25007KT 2SM -SN OVC012=

USA.gov is the U.S. government's official web portal to all federal, state and local government web resources and services.